Time;durP1;ratioP1;P1;durP2;ratioP2;P2;SDS_P1;SDS_P2;PMS_P1;PMS_P2;Temp;Humidity;BMP_temperature;BMP_pressure;BME280_temperature;BME280_humidity;BME280_pressure;Samples;Min_cycle;Max_cycle;Signal;HPM_P1;HPM_P2
2023/07/05 00:00:07;;;;;;;0.50;0.50;;;;;;;18.19;58.36;96485.66;29395;212;63004;-61
2023/07/05 00:00:39;;;;;;;0.40;0.40;;;;;;;18.17;58.62;96476.97;29395;196;63008;-65
2023/07/05 00:01:14;;;;;;;0.40;0.40;;;;;;;18.17;58.38;96483.28;29395;240;63005;-49
2023/07/05 00:01:46;;;;;;;0.32;0.32;;;;;;;18.20;59.13;96473.53;29394;235;64014;-49
2023/07/05 00:02:17;;;;;;;0.37;0.37;;;;;;;18.18;58.60;96478.59;29394;221;64025;-60
2023/07/05 00:02:53;;;;;;;0.30;0.30;;;;;;;18.15;58.32;96484.78;29395;216;63005;-65
2023/07/05 00:03:27;;;;;;;0.40;0.40;;;;;;;18.15;58.93;96473.78;29395;270;63005;-62
2023/07/05 00:03:58;;;;;;;0.30;0.30;;;;;;;18.15;59.25;96479.28;29394;294;64013;-61
2023/07/05 00:04:30;;;;;;;0.30;0.30;;;;;;;18.15;59.16;96485.56;29395;216;63005;-64
2023/07/05 00:05:02;;;;;;;0.30;0.30;;;;;;;18.12;58.81;96474.50;29395;231;63019;-62
2023/07/05 00:05:37;;;;;;;0.32;0.32;;;;;;;18.07;59.39;96470.84;29395;204;63004;-62
2023/07/05 00:06:09;;;;;;;0.30;0.30;;;;;;;18.05;59.36;96475.88;29395;241;63009;-59
2023/07/05 00:06:40;;;;;;;0.30;0.30;;;;;;;18.03;59.38;96478.19;29395;211;63004;-62
2023/07/05 00:07:14;;;;;;;0.30;0.30;;;;;;;18.01;59.66;96475.03;29394;220;64013;-50
2023/07/05 00:07:46;;;;;;;0.30;0.30;;;;;;;18.01;59.92;96469.53;29395;196;63004;-62
2023/07/05 00:08:18;;;;;;;0.30;0.30;;;;;;;18.05;59.76;96475.09;29395;210;63008;-51
2023/07/05 00:08:53;;;;;;;0.40;0.40;;;;;;;18.05;59.61;96467.66;29395;233;63005;-61
2023/07/05 00:09:28;;;;;;;0.30;0.30;;;;;;;18.06;59.53;96477.47;29395;230;63009;-68
2023/07/05 00:10:00;;;;;;;0.30;0.30;;;;;;;18.09;59.81;96465.00;29395;284;63005;-62
2023/07/05 00:10:33;;;;;;;0.30;0.30;;;;;;;18.08;59.60;96466.94;29394;266;64013;-65
2023/07/05 00:11:06;;;;;;;0.35;0.35;;;;;;;18.07;59.27;96472.78;29394;222;64009;-50
2023/07/05 00:11:37;;;;;;;0.40;0.40;;;;;;;18.07;59.66;96467.31;29395;203;63009;-62
2023/07/05 00:12:09;;;;;;;0.30;0.30;;;;;;;18.06;59.59;96469.25;29394;286;64009;-64
2023/07/05 00:12:41;;;;;;;0.30;0.30;;;;;;;18.06;60.01;96471.19;29395;214;63009;-50
2023/07/05 00:13:12;;;;;;;0.40;0.40;;;;;;;18.04;59.72;96476.25;29395;280;63004;-60
2023/07/05 00:13:44;;;;;;;0.30;0.30;;;;;;;18.01;60.14;96475.03;29394;352;64013;-59
2023/07/05 00:14:15;;;;;;;0.40;0.40;;;;;;;17.99;60.25;96482.81;29395;228;63004;-61
2023/07/05 00:14:47;;;;;;;0.40;0.40;;;;;;;17.97;60.22;96485.09;29394;222;64009;-65
2023/07/05 00:15:19;;;;;;;0.35;0.35;;;;;;;17.95;60.15;96476.41;29395;233;63004;-60
2023/07/05 00:15:52;;;;;;;0.40;0.40;;;;;;;17.93;60.19;96478.72;29395;232;63008;-59
2023/07/05 00:16:25;;;;;;;0.40;0.40;;;;;;;17.91;59.97;96471.97;29395;231;63012;-50
2023/07/05 00:16:56;;;;;;;0.30;0.30;;;;;;;17.90;60.20;96473.13;29395;265;63011;-61
2023/07/05 00:17:35;;;;;;;0.40;0.40;;;;;;;17.89;60.42;96477.00;29395;230;63005;-60
2023/07/05 00:18:06;;;;;;;0.30;0.30;;;;;;;17.89;60.05;96472.31;29395;197;63009;-51
2023/07/05 00:18:38;;;;;;;0.30;0.30;;;;;;;17.88;60.15;96475.41;29395;221;63005;-60
2023/07/05 00:19:10;;;;;;;0.30;0.30;;;;;;;17.85;60.90;96468.69;29394;214;64013;-62
2023/07/05 00:19:41;;;;;;;0.30;0.30;;;;;;;17.86;60.61;96478.50;29395;224;63005;-61
2023/07/05 00:20:15;;;;;;;0.40;0.40;;;;;;;17.85;60.37;96471.41;29395;234;63009;-63
2023/07/05 00:20:47;;;;;;;0.30;0.30;;;;;;;17.88;60.87;96467.97;29395;234;63004;-60
2023/07/05 00:21:20;;;;;;;0.30;0.30;;;;;;;17.88;60.51;96469.94;29395;233;63017;-62
2023/07/05 00:21:54;;;;;;;0.37;0.37;;;;;;;17.86;60.83;96462.03;29395;277;63010;-64
2023/07/05 00:22:26;;;;;;;0.30;0.30;;;;;;;17.84;60.45;96461.59;29395;209;63009;-62
2023/07/05 00:22:58;;;;;;;0.40;0.40;;;;;;;17.84;60.71;96469.81;29395;223;63004;-60
2023/07/05 00:23:31;;;;;;;0.30;0.30;;;;;;;17.81;60.62;96470.53;29395;296;63008;-50
2023/07/05 00:24:04;;;;;;;0.30;0.30;;;;;;;17.78;60.82;96471.22;29394;261;64009;-63
2023/07/05 00:24:36;;;;;;;0.30;0.30;;;;;;;17.77;61.30;96468.81;29394;219;64014;-62
2023/07/05 00:25:08;;;;;;;0.32;0.32;;;;;;;17.76;61.26;96468.03;29395;228;63005;-63
2023/07/05 00:25:39;;;;;;;0.30;0.30;;;;;;;17.78;61.07;96473.97;29395;254;63005;-62
2023/07/05 00:26:12;;;;;;;0.30;0.30;;;;;;;17.75;61.53;96475.47;29395;207;63005;-60
2023/07/05 00:26:43;;;;;;;0.40;0.40;;;;;;;17.71;61.17;96473.75;29395;223;63016;-61
2023/07/05 00:27:15;;;;;;;0.40;0.40;;;;;;;17.68;61.29;96471.69;29395;197;63005;-60
2023/07/05 00:27:48;;;;;;;15.02;14.45;;;;;;;17.64;61.65;96473.53;29384;197;66013;-60
2023/07/05 00:28:19;;;;;;;0.30;0.30;;;;;;;17.61;62.06;96482.47;29395;214;63009;-61
2023/07/05 00:28:51;;;;;;;0.40;0.40;;;;;;;17.63;62.16;96474.69;29395;229;63009;-62
2023/07/05 00:29:23;;;;;;;0.35;0.35;;;;;;;17.62;62.21;96473.09;29395;218;63000;-60
2023/07/05 00:29:54;;;;;;;0.40;0.40;;;;;;;17.60;62.27;96475.38;29395;202;63009;-51
2023/07/05 00:30:26;;;;;;;0.35;0.35;;;;;;;17.55;63.08;96483.84;29395;216;63004;-61
2023/07/05 00:30:57;;;;;;;0.30;0.30;;;;;;;17.52;62.57;96484.53;29395;220;63008;-59
2023/07/05 00:31:28;;;;;;;0.30;0.30;;;;;;;17.48;62.98;96483.62;29395;221;63005;-59
2023/07/05 00:31:59;;;;;;;0.30;0.30;;;;;;;17.45;63.35;96476.09;29395;225;63009;-59
2023/07/05 00:32:30;;;;;;;0.30;0.30;;;;;;;17.47;63.54;96476.56;29395;225;63008;-60
2023/07/05 00:33:02;;;;;;;0.30;0.30;;;;;;;17.47;63.15;96476.56;29394;228;64013;-59
2023/07/05 00:33:33;;;;;;;0.40;0.40;;;;;;;17.47;63.84;96471.06;29395;314;63005;-61
2023/07/05 00:34:07;;;;;;;0.70;0.70;;;;;;;17.48;63.51;96472.66;29395;297;63009;-63
2023/07/05 00:34:38;;;;;;;0.30;0.30;;;;;;;17.46;63.53;96474.97;29395;236;63004;-52
2023/07/05 00:35:11;;;;;;;0.30;0.30;;;;;;;17.49;63.81;96479.75;29394;228;64013;-61
2023/07/05 00:36:01;;;;;;;0.40;0.40;;;;;;;17.43;64.85;96470.97;29395;211;63004;-60
2023/07/05 00:36:32;;;;;;;0.40;0.40;;;;;;;17.39;64.39;96470.06;29395;212;63009;-60
2023/07/05 00:37:07;;;;;;;0.30;0.30;;;;;;;17.41;64.61;96463.09;29395;212;63004;-61
2023/07/05 00:37:38;;;;;;;0.30;0.30;;;;;;;17.40;64.28;96468.91;29395;202;63008;-59
2023/07/05 00:38:10;;;;;;;0.47;0.47;;;;;;;17.39;64.30;96464.56;29394;252;64008;-63
2023/07/05 00:38:41;;;;;;;0.30;0.30;;;;;;;17.39;64.39;96476.34;29395;227;63008;-59
2023/07/05 00:39:13;;;;;;;0.40;0.40;;;;;;;17.37;64.45;96467.66;29394;220;64009;-59
2023/07/05 00:39:44;;;;;;;0.40;0.40;;;;;;;17.36;64.26;96462.53;29395;259;63009;-51
2023/07/05 00:40:18;;;;;;;0.40;0.40;;;;;;;17.35;64.50;96464.47;29395;202;63005;-60
2023/07/05 00:40:51;;;;;;;0.40;0.40;;;;;;;17.34;64.42;96462.88;29395;237;63009;-60
2023/07/05 00:41:22;;;;;;;0.40;0.40;;;;;;;17.34;64.74;96460.12;29395;332;63016;-61
2023/07/05 00:41:54;;;;;;;0.30;0.30;;;;;;;17.36;64.88;96466.06;29395;205;63009;-63
2023/07/05 00:42:25;;;;;;;0.30;0.30;;;;;;;17.37;65.30;96462.16;29395;202;63004;-60
2023/07/05 00:42:57;;;;;;;0.30;0.30;;;;;;;17.35;65.43;96463.66;29395;257;63009;-60
2023/07/05 00:43:28;;;;;;;0.30;0.30;;;;;;;17.33;65.18;96461.25;29394;218;64009;-60
2023/07/05 00:44:04;;;;;;;0.40;0.40;;;;;;;17.32;65.22;96459.69;29395;218;63009;-49
2023/07/05 00:44:35;;;;;;;1.20;1.20;;;;;;;17.28;65.26;96453.31;29395;235;63004;-50
2023/07/05 00:45:48;;;;;;;0.37;0.37;;;;;;;17.23;65.60;96455.47;29395;274;63008;-50
2023/07/05 00:46:29;;;;;;;0.30;0.30;;;;;;;17.28;65.47;96453.31;29394;205;64009;-62
2023/07/05 00:47:28;;;;;;;0.40;0.40;;;;;;;17.33;65.22;96450.31;29395;216;63009;-59
2023/07/05 00:48:00;;;;;;;0.40;0.40;;;;;;;17.34;65.06;96446.41;29395;223;63005;-68
2023/07/05 00:48:42;;;;;;;0.30;0.30;;;;;;;17.36;65.27;96448.81;29395;325;63009;-62
2023/07/05 00:49:20;;;;;;;0.32;0.32;;;;;;;17.35;65.70;96452.69;29394;369;64009;-63
2023/07/05 00:50:01;;;;;;;0.30;0.30;;;;;;;17.36;65.81;96444.13;29395;197;63009;-59
2023/07/05 00:50:38;;;;;;;0.40;0.40;;;;;;;17.37;65.31;96439.44;29417;218;63004;-61
2023/07/05 00:51:29;;;;;;;0.40;0.40;;;;;;;17.41;65.53;96437.59;29394;198;64013;-62
2023/07/05 00:52:06;;;;;;;0.40;0.40;;;;;;;17.35;65.03;96448.00;29416;250;64009;-60
2023/07/05 00:52:38;;;;;;;0.40;0.40;;;;;;;17.32;65.45;96446.00;29395;398;63008;-67
2023/07/05 00:53:11;;;;;;;0.40;0.40;;;;;;;17.30;65.42;96444.75;29394;231;64009;-58
2023/07/05 00:53:44;;;;;;;0.40;0.40;;;;;;;17.27;65.67;96443.47;29395;224;63009;-59
2023/07/05 00:54:22;;;;;;;0.40;0.40;;;;;;;17.26;65.96;96439.16;29395;225;63005;-62
2023/07/05 00:54:57;;;;;;;0.40;0.40;;;;;;;17.26;65.87;96439.16;29394;288;64013;-62
2023/07/05 00:55:28;;;;;;;0.30;0.30;;;;;;;17.25;65.84;96443.03;29395;198;63005;-61
2023/07/05 00:56:10;;;;;;;0.40;0.40;;;;;;;17.25;65.82;96440.28;29395;202;63023;-59
2023/07/05 00:56:50;;;;;;;0.40;0.40;;;;;;;17.24;65.73;96433.22;29395;209;63005;-59
2023/07/05 00:57:29;;;;;;;0.30;0.30;;;;;;;17.23;65.88;96434.34;29395;198;63009;-61
2023/07/05 00:58:03;;;;;;;0.40;0.40;;;;;;;17.21;66.05;96442.13;29395;244;63004;-51
2023/07/05 00:58:35;;;;;;;0.40;0.40;;;;;;;17.25;66.00;96432.06;29395;198;63009;-63
2023/07/05 00:59:12;;;;;;;0.40;0.40;;;;;;;17.27;66.09;96429.78;29395;202;63004;-50
2023/07/05 00:59:48;;;;;;;0.40;0.40;;;;;;;17.30;66.21;96434.56;29394;237;64013;-67
2023/07/05 01:00:22;;;;;;;0.40;0.40;;;;;;;17.33;66.18;96425.63;29394;223;64004;-51
2023/07/05 01:00:55;;;;;;;0.52;0.52;;;;;;;17.35;65.94;96428.81;29395;203;63009;-59
2023/07/05 01:01:27;;;;;;;0.40;0.40;;;;;;;17.33;65.62;96425.63;29395;203;63005;-60
2023/07/05 01:02:00;;;;;;;0.40;0.40;;;;;;;17.32;65.84;96424.06;29395;220;63009;-59
2023/07/05 01:02:39;;;;;;;0.40;0.40;;;;;;;17.30;65.76;96418.13;29394;313;64009;-59
2023/07/05 01:03:16;;;;;;;0.40;0.40;;;;;;;17.31;66.00;96422.44;29395;233;63009;-63
2023/07/05 01:03:53;;;;;;;0.40;0.40;;;;;;;17.33;65.92;96417.41;29395;296;63005;-62
2023/07/05 01:04:26;;;;;;;0.40;0.40;;;;;;;17.32;65.85;96415.81;29395;216;63009;-61
2023/07/05 01:05:00;;;;;;;0.40;0.40;;;;;;;17.29;66.41;96424.75;29395;256;63004;-59
2023/07/05 01:05:33;;;;;;;0.40;0.40;;;;;;;17.27;65.89;96418.00;29395;226;63019;-60
2023/07/05 01:06:06;;;;;;;0.40;0.40;;;;;;;17.25;66.22;96421.09;29395;231;63004;-61
2023/07/05 01:06:39;;;;;;;0.40;0.40;;;;;;;17.24;66.46;96418.69;29394;235;64013;-61
2023/07/05 01:07:14;;;;;;;0.40;0.40;;;;;;;17.25;66.51;96421.09;29395;236;63004;-62
2023/07/05 01:07:48;;;;;;;0.40;0.40;;;;;;;17.26;65.94;96422.69;29395;252;63008;-60
2023/07/05 01:08:23;;;;;;;0.30;0.30;;;;;;;17.26;66.42;96421.91;29395;295;63005;-59
2023/07/05 01:08:58;;;;;;;0.40;0.40;;;;;;;17.27;66.48;96421.56;29395;270;63009;-61
2023/07/05 01:09:31;;;;;;;0.30;0.30;;;;;;;17.29;66.28;96423.94;29395;210;63005;-51
2023/07/05 01:10:04;;;;;;;0.40;0.40;;;;;;;17.27;66.51;96424.28;29395;231;63009;-58
2023/07/05 01:10:36;;;;;;;0.40;0.40;;;;;;;17.24;66.37;96430.47;29395;202;63005;-58
2023/07/05 01:11:48;;;;;;;0.40;0.40;;;;;;;17.22;66.37;96427.28;29395;226;63009;-60
2023/07/05 01:12:27;;;;;;;0.40;0.40;;;;;;;17.20;66.55;96424.06;29416;231;64013;-63
2023/07/05 01:13:11;;;;;;;0.40;0.40;;;;;;;17.21;66.20;96427.63;29417;236;63004;-59
2023/07/05 01:13:54;;;;;;;0.30;0.30;;;;;;;17.19;66.28;96425.22;29395;224;63021;-58
2023/07/05 01:14:56;;;;;;;0.40;0.40;;;;;;;17.19;66.41;96425.22;29395;226;63004;-60
2023/07/05 01:15:52;;;;;;;0.40;0.40;;;;;;;17.18;66.28;96428.31;29395;228;63008;-58
2023/07/05 01:16:42;;;;;;;0.40;0.40;;;;;;;17.17;66.81;96430.25;29395;264;63011;-59
2023/07/05 01:17:40;;;;;;;0.40;0.40;;;;;;;17.15;66.64;96437.22;29395;264;63009;-60
2023/07/05 01:18:36;;;;;;;0.40;0.40;;;;;;;17.16;66.56;96434.13;29394;263;64009;-59
2023/07/05 01:19:50;;;;;;;0.30;0.30;;;;;;;17.18;67.09;96425.56;29396;336;63009;-59
2023/07/05 01:20:57;;;;;;;0.40;0.40;;;;;;;17.22;67.35;96431.97;29395;297;64009;-61
2023/07/05 01:21:49;;;;;;;0.40;0.40;;;;;;;17.27;67.82;96424.28;29396;227;63009;-62
2023/07/05 01:22:59;;;;;;;0.40;0.40;;;;;;;17.31;66.80;96429.88;29396;299;63004;-60
2023/07/05 01:24:24;;;;;;;0.40;0.40;;;;;;;17.33;68.14;96420.13;29396;203;63009;-65
2023/07/05 01:25:38;;;;;;;0.40;0.40;;;;;;;17.33;68.58;96422.88;29395;284;64009;-61
2023/07/05 01:27:03;;;;;;;0.40;0.40;;;;;;;17.35;68.08;96423.31;29396;196;63009;-62
2023/07/05 01:28:16;;;;;;;0.40;0.40;;;;;;;17.38;68.50;96417.16;29396;215;63004;-59
2023/07/05 01:29:35;;;;;;;0.40;0.40;;;;;;;17.38;68.58;96403.44;29395;286;64013;-59
2023/07/05 01:30:59;;;;;;;0.40;0.40;;;;;;;17.28;67.92;96414.91;29396;221;63008;-51
2023/07/05 01:32:01;;;;;;;0.35;0.35;;;;;;;17.27;68.72;96407.84;29396;210;63005;-60
2023/07/05 01:32:54;;;;;;;0.40;0.40;;;;;;;17.32;68.42;96399.38;29418;216;63018;-60
2023/07/05 01:33:50;;;;;;;0.40;0.40;;;;;;;17.33;68.49;96406.41;29396;203;63005;-61
2023/07/05 01:34:55;;;;;;;4.00;2.15;;;;;;;17.34;68.58;96405.28;29395;203;64027;-50
2023/07/05 01:35:32;;;;;;;0.40;0.40;;;;;;;17.34;68.10;96405.28;29396;380;63004;-59
2023/07/05 01:36:05;;;;;;;0.40;0.40;;;;;;;17.31;68.13;96408.75;29396;231;63004;-59
2023/07/05 01:36:38;;;;;;;0.40;0.40;;;;;;;17.27;68.24;96407.84;29396;303;63004;-51
2023/07/05 01:37:22;;;;;;;0.40;0.40;;;;;;;17.25;68.08;96404.66;29396;235;63008;-60
2023/07/05 01:37:53;;;;;;;0.40;0.40;;;;;;;17.22;68.71;96415.50;29395;274;64004;-63
2023/07/05 01:38:25;;;;;;;0.40;0.40;;;;;;;17.23;69.11;96417.09;29395;220;64014;-62
2023/07/05 01:39:01;;;;;;;0.40;0.40;;;;;;;17.23;69.08;96412.41;29395;209;64009;-59
2023/07/05 01:39:32;;;;;;;0.40;0.40;;;;;;;17.23;68.85;96412.41;29395;233;64013;-58
2023/07/05 01:41:00;;;;;;;0.43;0.43;;;;;;;17.23;69.42;96406.94;29396;273;63005;-61
2023/07/05 01:41:32;;;;;;;0.40;0.40;;;;;;;17.23;68.89;96406.13;29396;236;63017;-48
2023/07/05 01:42:06;;;;;;;0.40;0.40;;;;;;;17.23;68.80;96406.94;29396;239;63004;-58
2023/07/05 01:42:38;;;;;;;0.40;0.40;;;;;;;17.21;69.06;96403.75;29396;226;63013;-60
2023/07/05 01:43:15;;;;;;;0.40;0.40;;;;;;;17.20;69.36;96404.88;29395;218;64004;-59
2023/07/05 01:43:47;;;;;;;0.40;0.40;;;;;;;17.17;69.39;96408.31;29396;233;63009;-60
2023/07/05 01:44:18;;;;;;;0.30;0.30;;;;;;;17.17;68.99;96411.06;29395;260;64008;-59
2023/07/05 01:44:50;;;;;;;0.40;0.40;;;;;;;17.15;69.40;96404.31;29395;230;64013;-59
2023/07/05 01:45:40;;;;;;;0.40;0.40;;;;;;;17.14;69.28;96406.25;29396;214;63009;-59
2023/07/05 01:46:42;;;;;;;0.30;0.30;;;;;;;17.11;69.57;96406.97;29439;206;64014;-51
2023/07/05 01:47:24;;;;;;;0.40;0.40;;;;;;;17.10;69.30;96402.63;29396;215;63009;-50
2023/07/05 01:48:30;;;;;;;0.37;0.37;;;;;;;17.14;69.06;96403.53;29396;229;63022;-63
2023/07/05 01:49:34;;;;;;;0.40;0.40;;;;;;;17.21;69.05;96401.00;29396;317;63005;-52
2023/07/05 01:50:46;;;;;;;0.40;0.40;;;;;;;17.23;68.46;96398.72;29396;228;63009;-60
2023/07/05 01:52:07;;;;;;;0.40;0.40;;;;;;;17.28;67.94;96401.22;29417;221;64009;-59
2023/07/05 01:53:03;;;;;;;0.95;0.95;;;;;;;17.28;67.86;96406.69;29396;212;63009;-62
2023/07/05 01:54:02;;;;;;;0.40;0.40;;;;;;;17.26;68.03;96408.97;29396;209;63005;-52
2023/07/05 01:55:13;;;;;;;0.40;0.40;;;;;;;17.25;68.36;96410.13;29396;231;63009;-62
2023/07/05 01:56:15;;;;;;;0.40;0.40;;;;;;;17.19;68.23;96418.94;29439;229;64009;-61
2023/07/05 01:57:20;;;;;;;0.50;0.50;;;;;;;17.15;68.12;96413.34;29418;197;63009;-61
2023/07/05 01:58:13;;;;;;;0.40;0.40;;;;;;;17.21;68.20;96425.69;29396;337;63004;-50
2023/07/05 01:58:49;;;;;;;0.40;0.40;;;;;;;17.22;67.48;96421.78;29396;284;63009;-60
2023/07/05 01:59:25;;;;;;;0.40;0.40;;;;;;;17.21;67.51;96424.88;29395;335;64008;-51
2023/07/05 02:00:18;;;;;;;0.40;0.40;;;;;;;17.19;68.11;96433.44;29396;275;63019;-59
2023/07/05 02:00:51;;;;;;;0.40;0.40;;;;;;;17.16;67.90;96425.91;29396;226;63005;-59
2023/07/05 02:01:24;;;;;;;0.40;0.40;;;;;;;17.16;67.93;96427.84;29396;311;63009;-59
2023/07/05 02:01:58;;;;;;;0.40;0.40;;;;;;;17.16;68.04;96428.66;29396;286;63005;-61
2023/07/05 02:02:38;;;;;;;0.37;0.37;;;;;;;17.17;67.93;96421.22;29396;197;63005;-59
2023/07/05 02:03:15;;;;;;;0.40;0.40;;;;;;;17.16;67.93;96423.16;29419;268;63005;-59
2023/07/05 02:03:49;;;;;;;0.40;0.40;;;;;;;17.16;68.14;96428.66;29396;232;64013;-60
2023/07/05 02:04:24;;;;;;;0.35;0.35;;;;;;;17.23;67.75;96433.56;29397;212;63005;-50
2023/07/05 02:04:57;;;;;;;0.40;0.40;;;;;;;17.23;67.45;96433.56;29396;243;64009;-58
2023/07/05 02:05:31;;;;;;;0.40;0.40;;;;;;;17.21;67.88;96442.13;29397;222;63004;-59
2023/07/05 02:06:04;;;;;;;0.40;0.40;;;;;;;17.19;67.98;96436.19;29397;226;63009;-59
2023/07/05 02:06:37;;;;;;;0.40;0.40;;;;;;;17.18;68.40;96439.28;29397;228;63004;-58
2023/07/05 02:07:09;;;;;;;0.40;0.40;;;;;;;17.17;67.84;96437.66;29397;243;63025;-59
2023/07/05 02:07:45;;;;;;;0.40;0.40;;;;;;;17.17;68.58;96438.47;29397;203;63004;-60
2023/07/05 02:08:17;;;;;;;0.40;0.40;;;;;;;17.17;68.92;96441.22;29397;224;63009;-59
2023/07/05 02:08:50;;;;;;;0.40;0.40;;;;;;;17.18;68.06;96437.34;29396;261;64009;-59
2023/07/05 02:09:22;;;;;;;0.40;0.40;;;;;;;17.22;67.69;96438.25;29397;198;63009;-62
2023/07/05 02:09:55;;;;;;;0.40;0.40;;;;;;;17.25;67.97;96432.06;29396;208;64005;-59
2023/07/05 02:10:29;;;;;;;0.40;0.40;;;;;;;17.27;67.70;96437.19;29396;206;64013;-58
2023/07/05 02:11:01;;;;;;;0.40;0.40;;;;;;;17.26;67.66;96439.16;29397;230;63005;-59
2023/07/05 02:11:36;;;;;;;0.40;0.40;;;;;;;17.25;67.36;96442.22;29397;204;63009;-61
2023/07/05 02:12:08;;;;;;;0.40;0.40;;;;;;;17.23;67.29;96442.56;29396;218;64004;-59
2023/07/05 02:12:40;;;;;;;0.40;0.40;;;;;;;17.22;67.76;96449.19;29397;220;63009;-59
2023/07/05 02:13:12;;;;;;;0.40;0.40;;;;;;;17.21;67.62;96447.59;29397;199;63004;-59
2023/07/05 02:13:44;;;;;;;0.40;0.40;;;;;;;17.20;67.70;96446.00;29396;216;64013;-50
2023/07/05 02:14:15;;;;;;;0.40;0.40;;;;;;;17.18;68.12;96448.28;29397;203;63010;-61
2023/07/05 02:14:46;;;;;;;0.30;0.30;;;;;;;17.17;67.59;96449.44;29397;196;63008;-60
2023/07/05 02:15:18;;;;;;;0.30;0.30;;;;;;;17.18;67.96;96455.72;29397;227;63005;-61
2023/07/05 02:15:50;;;;;;;0.30;0.30;;;;;;;17.24;67.02;96460.62;29396;220;63009;-58
2023/07/05 02:16:22;;;;;;;0.40;0.40;;;;;;;17.28;66.92;96461.53;29395;225;64009;-61
2023/07/05 02:16:53;;;;;;;0.40;0.40;;;;;;;17.30;67.15;96462.00;29397;212;63016;-50
2023/07/05 02:17:26;;;;;;;0.40;0.40;;;;;;;17.35;66.58;96453.50;29396;203;63005;-64
2023/07/05 02:17:57;;;;;;;0.40;0.40;;;;;;;17.37;66.57;96459.44;29396;196;63009;-57
2023/07/05 02:18:30;;;;;;;0.40;0.40;;;;;;;17.34;66.76;96457.37;29396;344;63005;-51
2023/07/05 02:19:04;;;;;;;0.40;0.40;;;;;;;17.33;66.39;96461.25;29396;197;63009;-58
2023/07/05 02:19:36;;;;;;;0.40;0.40;;;;;;;17.32;66.53;96453.41;29396;295;63008;-59
2023/07/05 02:20:08;;;;;;;0.30;0.30;;;;;;;17.33;66.59;96454.97;29396;197;63009;-61
2023/07/05 02:20:41;;;;;;;0.40;0.40;;;;;;;17.33;66.77;96453.03;29396;223;63004;-59
2023/07/05 02:21:14;;;;;;;0.40;0.40;;;;;;;17.33;66.49;96453.03;29395;252;64013;-57
2023/07/05 02:21:46;;;;;;;0.40;0.40;;;;;;;17.33;66.41;96450.31;29395;231;64009;-58
2023/07/05 02:22:19;;;;;;;0.37;0.37;;;;;;;17.32;66.80;96451.47;29396;232;63008;-58
2023/07/05 02:22:50;;;;;;;0.40;0.40;;;;;;;17.34;66.83;96460.12;29396;370;63014;-50
2023/07/05 02:23:26;;;;;;;0.40;0.40;;;;;;;17.35;66.51;96452.69;29396;253;63009;-50
2023/07/05 02:24:01;;;;;;;0.40;0.40;;;;;;;17.37;66.49;96440.25;29395;211;64009;-59
2023/07/05 02:24:34;;;;;;;0.32;0.32;;;;;;;17.43;66.13;96447.06;29396;266;63009;-59
2023/07/05 02:25:06;;;;;;;0.40;0.40;;;;;;;17.43;66.27;96449.81;29396;210;63005;-59
2023/07/05 02:25:37;;;;;;;0.40;0.40;;;;;;;17.45;66.05;96454.16;29396;328;63009;-64
2023/07/05 02:26:08;;;;;;;0.40;0.40;;;;;;;17.45;65.99;96457.69;29396;236;63005;-50
2023/07/05 02:26:41;;;;;;;0.40;0.40;;;;;;;17.46;65.77;96453.00;29396;208;63009;-59
2023/07/05 02:27:13;;;;;;;0.37;0.37;;;;;;;17.45;65.51;96456.91;29395;247;64009;-58
2023/07/05 02:27:46;;;;;;;0.40;0.40;;;;;;;17.45;65.88;96456.91;29396;213;63009;-58
2023/07/05 02:28:19;;;;;;;0.40;0.40;;;;;;;17.46;65.92;96464.00;29396;202;63004;-51
2023/07/05 02:28:50;;;;;;;0.40;0.40;;;;;;;17.46;65.95;96453.00;29396;356;63009;-58
2023/07/05 02:29:22;;;;;;;0.40;0.40;;;;;;;17.47;65.87;96466.38;29395;233;64009;-60
2023/07/05 02:29:54;;;;;;;0.40;0.40;;;;;;;17.50;65.75;96453.91;29396;278;63008;-58
2023/07/05 02:30:26;;;;;;;0.40;0.40;;;;;;;17.48;65.98;96459.75;29396;293;63005;-60
2023/07/05 02:31:04;;;;;;;0.40;0.40;;;;;;;17.49;66.07;96468.78;29397;386;63009;-58
2023/07/05 02:31:39;;;;;;;0.40;0.40;;;;;;;17.48;66.00;96472.66;29396;249;63005;-58
2023/07/05 02:32:10;;;;;;;0.40;0.40;;;;;;;17.48;65.89;96467.19;29396;205;63014;-61
2023/07/05 02:32:42;;;;;;;0.40;0.40;;;;;;;17.48;66.68;96465.25;29396;328;63005;-57
2023/07/05 02:33:13;;;;;;;0.40;0.40;;;;;;;17.48;66.06;96475.41;29396;233;63009;-59
2023/07/05 02:33:44;;;;;;;0.30;0.30;;;;;;;17.48;66.50;96480.91;29396;335;63007;-57
2023/07/05 02:34:16;;;;;;;0.40;0.40;;;;;;;17.48;66.43;96473.47;29396;218;63009;-51
2023/07/05 02:34:47;;;;;;;0.40;0.40;;;;;;;17.48;65.93;96469.94;29395;220;64009;-58
2023/07/05 02:35:23;;;;;;;0.40;0.40;;;;;;;17.49;66.20;96466.03;29396;211;63009;-51
2023/07/05 02:35:54;;;;;;;0.40;0.40;;;;;;;17.52;65.71;96474.38;29396;218;63004;-50
2023/07/05 02:36:25;;;;;;;0.40;0.40;;;;;;;17.57;65.31;96473.34;29396;202;63009;-60
2023/07/05 02:36:57;;;;;;;0.40;0.40;;;;;;;17.58;65.54;96472.19;29396;216;63010;-50
2023/07/05 02:37:31;;;;;;;0.40;0.40;;;;;;;17.60;65.58;96480.88;29396;388;63011;-58
2023/07/05 02:38:05;;;;;;;0.40;0.40;;;;;;;17.59;65.94;96473.78;29396;198;63005;-59
2023/07/05 02:38:39;;;;;;;0.40;0.40;;;;;;;17.59;66.02;96476.53;29395;203;64014;-60
2023/07/05 02:39:11;;;;;;;0.40;0.40;;;;;;;17.58;66.22;96474.94;29396;205;63005;-59
2023/07/05 02:39:44;;;;;;;0.37;0.37;;;;;;;17.57;66.08;96482.38;29396;198;63009;-59
2023/07/05 02:40:20;;;;;;;0.30;0.30;;;;;;;17.58;66.68;96483.16;29396;216;63005;-59
2023/07/05 02:40:51;;;;;;;0.40;0.40;;;;;;;17.58;66.79;96483.16;29396;216;63009;-51
2023/07/05 02:41:22;;;;;;;0.40;0.40;;;;;;;17.59;67.02;96479.28;29396;202;63004;-53
2023/07/05 02:41:56;;;;;;;0.40;0.40;;;;;;;17.59;66.66;96490.25;29396;202;63009;-57
2023/07/05 02:42:28;;;;;;;0.40;0.40;;;;;;;17.62;66.60;96489.56;29396;202;63004;-58
2023/07/05 02:43:00;;;;;;;0.40;0.40;;;;;;;17.63;66.92;96477.44;29396;238;63009;-50
2023/07/05 02:43:33;;;;;;;0.40;0.40;;;;;;;17.62;67.32;96476.62;29396;260;63004;-59
2023/07/05 02:44:08;;;;;;;0.40;0.40;;;;;;;17.62;67.33;96475.84;29395;207;64013;-58
2023/07/05 02:44:39;;;;;;;0.40;0.40;;;;;;;17.63;67.66;96474.69;29396;220;63004;-59
2023/07/05 02:45:10;;;;;;;0.40;0.40;;;;;;;17.63;67.53;96480.19;29395;225;64008;-58
2023/07/05 02:45:41;;;;;;;0.40;0.40;;;;;;;17.65;67.43;96486.94;29396;199;63005;-55
2023/07/05 02:46:13;;;;;;;0.40;0.40;;;;;;;17.67;67.55;96483.84;29396;291;63009;-56
2023/07/05 02:46:44;;;;;;;0.40;0.40;;;;;;;17.65;67.73;96478.72;29396;216;63005;-58
2023/07/05 02:47:20;;;;;;;0.37;0.37;;;;;;;17.63;67.62;96480.19;29396;202;63009;-57
2023/07/05 02:47:52;;;;;;;0.40;0.40;;;;;;;17.63;67.82;96480.19;29396;279;63005;-51
2023/07/05 02:48:23;;;;;;;0.40;0.40;;;;;;;17.63;67.87;96480.19;29396;229;63009;-58
2023/07/05 02:48:57;;;;;;;0.40;0.40;;;;;;;17.62;67.68;96478.59;29396;202;63004;-57
2023/07/05 02:49:29;;;;;;;0.40;0.40;;;;;;;17.60;68.15;96481.66;29395;219;64013;-58
2023/07/05 02:50:00;;;;;;;0.40;0.40;;;;;;;17.59;67.74;96479.28;29396;223;63004;-58
2023/07/05 02:50:32;;;;;;;0.40;0.40;;;;;;;17.59;68.20;96469.09;29396;202;63009;-51
2023/07/05 02:51:03;;;;;;;0.40;0.40;;;;;;;17.59;68.33;96480.06;29396;198;63004;-57
2023/07/05 02:51:36;;;;;;;0.40;0.40;;;;;;;17.60;67.84;96470.69;29396;296;63008;-56
2023/07/05 02:52:07;;;;;;;0.40;0.40;;;;;;;17.61;67.82;96471.50;29396;333;63004;-59
2023/07/05 02:52:38;;;;;;;0.40;0.40;;;;;;;17.60;67.74;96472.63;29396;199;63009;-50
2023/07/05 02:53:10;;;;;;;0.40;0.40;;;;;;;17.58;67.96;96470.25;29396;231;63005;-57
2023/07/05 02:53:43;;;;;;;0.40;0.40;;;;;;;17.60;67.83;96480.88;29396;214;63020;-58
2023/07/05 02:54:14;;;;;;;0.40;0.40;;;;;;;17.60;67.45;96475.38;29395;290;64009;-57
2023/07/05 02:54:45;;;;;;;0.30;0.30;;;;;;;17.58;67.69;96481.22;29396;267;63009;-59
2023/07/05 02:55:17;;;;;;;0.30;0.30;;;;;;;17.59;68.21;96484.75;29396;216;63005;-57
2023/07/05 02:55:50;;;;;;;0.40;0.40;;;;;;;17.58;68.43;96488.66;29396;358;63005;-58
2023/07/05 02:56:22;;;;;;;0.40;0.40;;;;;;;17.58;68.16;96477.69;29396;215;63005;-50
2023/07/05 02:56:53;;;;;;;0.30;0.30;;;;;;;17.58;68.32;96488.66;29396;218;63009;-58
2023/07/05 02:57:25;;;;;;;0.40;0.40;;;;;;;17.57;68.04;96484.31;29396;205;63004;-51
2023/07/05 02:57:57;;;;;;;0.30;0.30;;;;;;;17.56;67.97;96485.44;29395;212;64009;-60